CheckWX is a tool to help pilots better visualize weather data.  It is not intended as a substitute for an official pre-flight weather briefing.

09:29:08 UTC

EIWF METAR
Waterford Airport
Waterford, Ireland
Current

29 mins ago

EIWF 200900Z 22023KT 3000 DZ OVC003 09/08 Q1010 RERA R21/2/////
Observed
Feb-20 @ 09:00 UTC
Wind
  • 220° at 23 KTS
Visibility
2,993 meters
Flight Rules
LIFR
Conditions
Drizzle
Cloud Levels
  • Overcast at 300' AGL
Temperature
C / 48°F
Dewpoint
C / 46°F
Humidity
94%
Altimeter
29.82" Hg
Pressure
1009.92 hPa
Previous

59 mins ago

EIWF 200830Z 22023KT 180V250 4000 RA OVC003 09/08 Q1010 R21/2/////
Observed
Feb-20 @ 08:30 UTC
Wind
  • 220° at 23 KTS
Visibility
4,007 meters
Flight Rules
LIFR
Conditions
Rain
Cloud Levels
  • Overcast at 300' AGL
Temperature
C / 48°F
Dewpoint
C / 46°F
Humidity
94%
Altimeter
29.82" Hg
Pressure
1009.92 hPa
Previous

1 hour ago

EIWF 200800Z 22022KT 180V240 3000 RA OVC005 09/08 Q1010 R21/2/////
Observed
Feb-20 @ 08:00 UTC
Wind
  • 220° at 22 KTS
Visibility
2,993 meters
Flight Rules
IFR
Conditions
Rain
Cloud Levels
  • Overcast at 500' AGL
Temperature
C / 48°F
Dewpoint
C / 46°F
Humidity
94%
Altimeter
29.82" Hg
Pressure
1009.92 hPa